Sollitt, Illinois
Current Conditions -  °F | °C
As of 11:15 PM on Friday 21 Nov 2014 (Local Time) from KIGQ Reporting Station
Overcast Overcast  
Wind Chill: 23°   Ceiling: 2700
Heat Index: 33°   Visibility: 10mi
Dew Point: 13°   Wind: 14mph
Humidity: 43%   Direction: 190°S
Pressure: 30.21"   Gusts: 20mph
Location:  41.3435°N, 87.6008°W
Report Text: KIGQ 220515Z AUTO 19012G17KT 10SM BKN027 OVC032 01/M11 A3021 RMK AO2 T00061107
Loading
Personal Weather Stations






























Interactive Weather Map New forecast layout! Learn more

10-Day Weather Forecast

Advertisements
Track Severe Weather on mobile